createdAt,value
2023-10-31T12:38:02.922Z,1.65
2023-10-31T12:41:10.239Z,0.70
2023-10-31T12:44:22.392Z,0.50
2023-10-31T12:47:27.921Z,2.25
2023-10-31T12:50:34.838Z,0.60
2023-10-31T12:53:40.049Z,1.17
2023-10-31T12:56:45.491Z,0.60
2023-10-31T12:59:57.447Z,4.32
2023-10-31T13:03:09.829Z,1.35
2023-10-31T13:06:17.494Z,2.30
2023-10-31T13:09:23.599Z,3.20
2023-10-31T13:12:32.255Z,5.53
2023-10-31T13:15:39.347Z,1.30
2023-10-31T13:18:44.895Z,4.35
2023-10-31T13:21:51.365Z,4.80
2023-10-31T13:24:57.102Z,2.78
2023-10-31T13:28:02.826Z,3.15
2023-10-31T13:31:09.761Z,1.63
2023-10-31T13:34:15.514Z,2.33
2023-10-31T13:37:22.235Z,1.20
2023-10-31T13:40:28.465Z,5.43
2023-10-31T13:43:34.132Z,1.35
2023-10-31T13:46:39.579Z,1.80
2023-10-31T13:49:48.554Z,1.60
2023-10-31T13:52:54.813Z,0.95
2023-10-31T13:56:00.596Z,0.70
2023-10-31T13:59:06.489Z,3.00
2023-10-31T14:02:12.339Z,0.60
2023-10-31T14:05:18.251Z,1.60
2023-10-31T14:08:23.958Z,1.58
2023-10-31T14:11:29.884Z,1.10
2023-10-31T14:14:35.911Z,1.98
2023-10-31T14:17:42.026Z,3.53
2023-10-31T14:20:48.246Z,7.68
2023-10-31T14:24:01.906Z,2.90
2023-10-31T14:27:14.405Z,1.48
2023-10-31T14:30:20.676Z,1.67
2023-10-31T14:33:26.301Z,4.85
2023-10-31T14:36:31.746Z,1.25
2023-10-31T14:39:37.469Z,3.80
2023-10-31T14:42:43.275Z,5.03
2023-10-31T14:45:49.005Z,3.00
2023-10-31T14:48:54.696Z,1.90
2023-10-31T14:52:00.478Z,2.97
2023-10-31T14:55:06.737Z,2.03
2023-10-31T14:58:12.242Z,1.65
2023-10-31T15:01:18.258Z,2.13
2023-10-31T15:04:24.243Z,3.88
2023-10-31T15:07:30.252Z,2.03
2023-10-31T15:10:36.664Z,4.88
2023-10-31T15:13:42.088Z,1.75
2023-10-31T15:16:47.764Z,1.98
2023-10-31T15:19:53.121Z,1.42
2023-10-31T15:22:59.112Z,1.20
2023-10-31T15:26:05.975Z,4.68
2023-10-31T15:29:11.653Z,1.38
2023-10-31T15:32:17.532Z,2.60
2023-10-31T15:35:23.066Z,1.83
2023-10-31T15:38:28.570Z,2.25
2023-10-31T15:41:34.882Z,2.05
2023-10-31T15:44:40.536Z,3.72
2023-10-31T15:47:46.401Z,2.28
2023-10-31T15:50:52.092Z,2.45
2023-10-31T15:53:58.078Z,5.32
2023-10-31T15:57:04.012Z,3.35
2023-10-31T16:00:09.968Z,1.23
2023-10-31T16:03:16.072Z,2.85
2023-10-31T16:06:21.648Z,1.55
2023-10-31T16:09:27.464Z,3.72
2023-10-31T16:12:34.740Z,3.05
2023-10-31T16:15:40.906Z,5.28
2023-10-31T16:18:47.026Z,8.50
2023-10-31T16:21:52.569Z,5.28
2023-10-31T16:24:58.644Z,5.45
2023-10-31T16:28:04.531Z,5.70
2023-10-31T16:31:10.842Z,4.18
2023-10-31T16:34:16.491Z,12.80
2023-10-31T16:37:21.739Z,11.23
2023-10-31T16:40:27.733Z,10.05
2023-10-31T16:43:34.284Z,7.95
2023-10-31T16:46:48.969Z,5.28
2023-10-31T16:49:55.121Z,5.22
2023-10-31T16:53:04.508Z,9.20
2023-10-31T16:56:10.042Z,3.33
2023-10-31T16:59:16.278Z,7.55
2023-10-31T17:02:21.976Z,9.30
2023-10-31T17:05:28.159Z,5.65
2023-10-31T17:08:33.854Z,2.72
2023-10-31T17:11:39.567Z,10.10
2023-10-31T17:14:45.155Z,7.85
2023-10-31T17:17:51.313Z,3.30
2023-10-31T17:20:58.324Z,12.88
2023-10-31T17:24:04.188Z,15.45
2023-10-31T17:27:10.098Z,14.63
2023-10-31T17:30:16.657Z,3.20
2023-10-31T17:33:22.141Z,9.77
2023-10-31T17:36:29.602Z,5.57
2023-10-31T17:39:36.737Z,5.80
2023-10-31T17:42:42.210Z,10.38
2023-10-31T17:45:49.488Z,6.75
2023-10-31T17:48:55.185Z,14.32
2023-10-31T17:52:03.107Z,4.18
2023-10-31T17:55:09.637Z,4.75
2023-10-31T17:58:14.878Z,3.60
2023-10-31T18:01:20.433Z,6.25
2023-10-31T18:04:26.311Z,3.65
2023-10-31T18:07:32.332Z,5.75
2023-10-31T18:10:38.619Z,4.78
2023-10-31T18:13:44.654Z,5.25
2023-10-31T18:16:50.195Z,3.20
2023-10-31T18:19:57.435Z,3.47
2023-10-31T18:23:03.218Z,3.65
2023-10-31T18:26:09.179Z,2.50
2023-10-31T18:29:15.398Z,5.93
2023-10-31T18:32:23.146Z,7.75
2023-10-31T18:35:30.966Z,5.13
2023-10-31T18:38:36.833Z,10.95
2023-10-31T18:41:55.751Z,10.20
2023-10-31T18:45:12.268Z,4.72
2023-10-31T18:48:17.898Z,7.43
2023-10-31T18:51:23.632Z,8.43
2023-10-31T18:54:28.885Z,7.57
2023-10-31T18:57:34.431Z,4.30
2023-10-31T19:00:40.214Z,8.05
2023-10-31T19:03:45.927Z,5.75
2023-10-31T19:06:52.790Z,6.05
2023-10-31T19:09:58.384Z,5.90
2023-10-31T19:13:04.060Z,10.05
2023-10-31T19:16:15.009Z,14.18
2023-10-31T19:19:21.853Z,8.85
2023-10-31T19:22:27.603Z,12.70
2023-10-31T19:25:33.675Z,13.43
2023-10-31T19:28:40.250Z,9.32
2023-10-31T19:31:45.720Z,6.80
2023-10-31T19:34:52.339Z,10.43
2023-10-31T19:37:57.936Z,6.50
2023-10-31T19:41:04.063Z,13.73
2023-10-31T19:44:09.500Z,11.65
2023-10-31T19:47:15.756Z,9.68
2023-10-31T19:50:22.148Z,9.48
2023-10-31T19:53:27.934Z,11.02
2023-10-31T19:56:34.060Z,8.20
2023-10-31T19:59:40.621Z,7.15
2023-10-31T20:02:49.171Z,6.28
2023-10-31T20:05:56.304Z,8.13
2023-10-31T20:09:01.644Z,11.65
2023-10-31T20:12:07.381Z,6.97
2023-10-31T20:15:12.792Z,7.18
2023-10-31T20:18:18.098Z,11.25
2023-10-31T20:21:23.537Z,10.90
2023-10-31T20:24:29.042Z,7.78
2023-10-31T20:27:34.533Z,7.80
2023-10-31T20:30:40.388Z,6.30
2023-10-31T20:33:45.822Z,7.75
2023-10-31T20:36:51.332Z,7.10
2023-10-31T20:39:57.289Z,9.40
2023-10-31T20:43:03.020Z,9.88
2023-10-31T20:46:08.394Z,8.48
2023-10-31T20:49:14.015Z,9.43
2023-10-31T20:52:19.270Z,7.40
2023-10-31T20:55:25.164Z,8.90
2023-10-31T20:58:30.861Z,7.32
2023-10-31T21:01:36.264Z,5.22
2023-10-31T21:04:41.857Z,10.40
2023-10-31T21:07:47.474Z,8.73
2023-10-31T21:10:53.441Z,7.50
2023-10-31T21:13:59.853Z,7.30
2023-10-31T21:17:05.827Z,10.25
2023-10-31T21:20:11.921Z,6.57
2023-10-31T21:23:18.216Z,7.35
2023-10-31T21:26:23.774Z,8.63
2023-10-31T21:29:29.707Z,6.38
2023-10-31T21:32:35.551Z,5.72
2023-10-31T21:35:41.559Z,6.28
2023-10-31T21:38:47.537Z,12.45
2023-10-31T21:41:53.210Z,5.90
2023-10-31T21:44:59.000Z,11.32
2023-10-31T21:48:08.941Z,7.93
2023-10-31T21:51:14.585Z,4.65
2023-10-31T21:54:21.767Z,10.63
2023-10-31T21:57:29.512Z,5.65
2023-10-31T22:00:36.106Z,6.38
2023-10-31T22:03:41.709Z,8.75
2023-10-31T22:06:46.895Z,12.57
2023-10-31T22:09:52.670Z,13.82
2023-10-31T22:12:58.420Z,8.80
2023-10-31T22:16:03.986Z,9.77
2023-10-31T22:19:10.279Z,8.52
2023-10-31T22:22:16.009Z,6.85
2023-10-31T22:25:21.721Z,10.18
2023-10-31T22:28:27.804Z,8.50
2023-10-31T22:31:37.665Z,10.60
2023-10-31T22:34:43.552Z,10.77
2023-10-31T22:37:49.249Z,7.57
2023-10-31T22:40:54.955Z,9.35
2023-10-31T22:44:00.554Z,11.10
2023-10-31T22:47:05.872Z,9.15
2023-10-31T22:50:11.465Z,7.97
2023-10-31T22:53:17.665Z,7.80
2023-10-31T22:56:23.303Z,10.85
2023-10-31T22:59:29.004Z,10.77
2023-10-31T23:02:34.241Z,8.00
2023-10-31T23:05:39.989Z,7.68
2023-10-31T23:08:45.540Z,6.10
2023-10-31T23:11:51.723Z,9.18
2023-10-31T23:14:57.507Z,10.38
2023-10-31T23:18:03.069Z,7.40
2023-10-31T23:21:08.285Z,8.30
2023-10-31T23:24:13.783Z,8.52
2023-10-31T23:27:19.076Z,7.85
2023-10-31T23:30:24.507Z,8.20
2023-10-31T23:33:30.914Z,6.88
2023-10-31T23:36:36.736Z,6.80
2023-10-31T23:39:42.307Z,9.20
2023-10-31T23:42:48.616Z,12.68
2023-10-31T23:45:54.350Z,7.93
2023-10-31T23:49:00.262Z,7.32
2023-10-31T23:52:06.350Z,6.22
2023-10-31T23:55:13.185Z,7.60
2023-10-31T23:58:18.773Z,20.10
